Time;durP1;ratioP1;P1;durP2;ratioP2;P2;SDS_P1;SDS_P2;PMS_P1;PMS_P2;Temp;Humidity;BMP_temperature;BMP_pressure;BME280_temperature;BME280_humidity;BME280_pressure;Samples;Min_cycle;Max_cycle;Signal;HPM_P1;HPM_P2
2023/07/19 00:00:37;;;;;;;4.00;2.30;;;18.20;64.50;;;;;;4950025;28;20486;-79
2023/07/19 00:03:03;;;;;;;2.67;2.03;;;18.00;64.10;;;;;;4966157;28;20557;-78
2023/07/19 00:05:29;;;;;;;3.42;2.30;;;18.00;64.20;;;;;;4964303;28;20038;-79
2023/07/19 00:07:54;;;;;;;3.75;2.33;;;18.10;65.50;;;;;;4955972;28;20046;-79
2023/07/19 00:10:20;;;;;;;6.18;2.75;;;18.00;64.00;;;;;;4955150;28;20027;-77
2023/07/19 00:12:45;;;;;;;4.40;2.42;;;17.80;63.90;;;;;;4960962;28;20038;-77
2023/07/19 00:15:11;;;;;;;4.15;2.88;;;17.80;64.60;;;;;;4979190;28;20452;-78
2023/07/19 00:17:36;;;;;;;5.07;3.40;;;17.80;63.80;;;;;;4972303;28;20073;-77
2023/07/19 00:20:03;;;;;;;5.25;2.08;;;17.60;64.10;;;;;;4969947;28;20133;-79
2023/07/19 00:22:28;;;;;;;2.78;2.15;;;17.60;63.80;;;;;;4965625;28;20105;-77
2023/07/19 00:24:54;;;;;;;3.20;2.90;;;17.60;64.20;;;;;;4969664;28;20033;-77
2023/07/19 00:27:19;;;;;;;5.10;2.80;;;17.50;64.10;;;;;;4974671;28;20027;-77
2023/07/19 00:29:45;;;;;;;6.07;2.33;;;17.30;63.80;;;;;;4957737;28;20027;-78
2023/07/19 00:32:10;;;;;;;5.15;2.90;;;17.30;64.50;;;;;;4971007;28;20498;-77
2023/07/19 00:34:36;;;;;;;4.45;2.90;;;17.30;64.20;;;;;;4987273;28;20137;-77
2023/07/19 00:37:02;;;;;;;4.20;2.55;;;17.20;64.80;;;;;;4986713;28;20453;-77
2023/07/19 00:39:27;;;;;;;4.22;2.15;;;17.20;64.20;;;;;;4952721;28;20356;-77
2023/07/19 00:41:53;;;;;;;5.50;2.55;;;17.10;64.40;;;;;;4954796;28;20062;-77
2023/07/19 00:44:18;;;;;;;3.95;2.30;;;17.10;65.00;;;;;;4968667;28;20394;-77
2023/07/19 00:46:44;;;;;;;4.70;3.17;;;17.10;65.90;;;;;;4956402;28;20043;-77
2023/07/19 00:49:10;;;;;;;8.50;3.15;;;17.10;65.00;;;;;;4977903;28;20057;-79
2023/07/19 00:51:36;;;;;;;13.00;2.97;;;16.90;65.40;;;;;;4952325;28;20035;-79
2023/07/19 00:54:02;;;;;;;2.35;1.77;;;17.00;65.40;;;;;;4953405;28;20104;-79
2023/07/19 00:56:27;;;;;;;4.68;2.67;;;16.90;65.40;;;;;;4983050;28;20031;-79
2023/07/19 00:58:53;;;;;;;4.20;2.90;;;17.00;65.50;;;;;;4953405;28;20122;-79
2023/07/19 01:01:20;;;;;;;4.20;2.10;;;16.90;65.50;;;;;;4952939;28;20081;-78
2023/07/19 01:03:45;;;;;;;3.13;2.03;;;16.90;65.80;;;;;;4999869;28;20038;-78
2023/07/19 01:06:11;;;;;;;3.83;2.88;;;16.90;65.80;;;;;;4969001;28;20039;-79
2023/07/19 01:08:36;;;;;;;4.30;2.92;;;16.80;65.30;;;;;;4971704;28;20054;-79
2023/07/19 01:11:02;;;;;;;6.78;3.40;;;16.80;65.40;;;;;;4953578;28;20031;-79
2023/07/19 01:13:27;;;;;;;4.22;3.15;;;16.60;65.40;;;;;;4973390;28;20035;-79
2023/07/19 01:15:53;;;;;;;6.90;3.60;;;16.60;65.40;;;;;;4955708;28;20052;-79
2023/07/19 01:18:19;;;;;;;4.95;2.50;;;16.50;66.00;;;;;;4968587;28;20022;-79
2023/07/19 01:20:45;;;;;;;4.00;2.83;;;16.40;70.20;;;;;;4983633;28;20045;-79
2023/07/19 01:23:11;;;;;;;4.95;3.05;;;16.40;72.10;;;;;;4957309;28;20106;-79
2023/07/19 01:25:37;;;;;;;5.35;3.03;;;16.40;74.10;;;;;;4967125;28;20228;-79
2023/07/19 01:28:02;;;;;;;7.25;2.58;;;16.10;71.80;;;;;;4966134;28;20030;-79
2023/07/19 01:30:28;;;;;;;6.97;2.75;;;16.10;71.40;;;;;;4964557;28;20031;-79
2023/07/19 01:32:54;;;;;;;2.90;2.15;;;16.10;70.90;;;;;;4963746;28;20041;-79
2023/07/19 01:35:19;;;;;;;3.55;2.30;;;16.30;68.60;;;;;;4974450;28;20037;-79
2023/07/19 01:37:45;;;;;;;2.97;2.08;;;16.40;68.00;;;;;;4968117;28;20157;-79
2023/07/19 01:40:11;;;;;;;4.15;2.40;;;16.40;68.40;;;;;;4950175;28;20031;-79
2023/07/19 01:42:37;;;;;;;2.95;2.35;;;16.30;68.10;;;;;;4953165;28;20035;-79
2023/07/19 01:45:03;;;;;;;5.35;2.63;;;16.20;67.80;;;;;;4968336;28;20049;-77
2023/07/19 01:47:28;;;;;;;5.65;2.60;;;16.20;67.20;;;;;;4971472;28;20112;-77
2023/07/19 01:49:54;;;;;;;3.95;2.80;;;16.10;67.60;;;;;;4969152;28;20101;-79
2023/07/19 01:52:19;;;;;;;2.88;2.35;;;16.10;67.60;;;;;;4986007;28;20422;-79
2023/07/19 01:54:45;;;;;;;5.50;2.25;;;16.10;68.40;;;;;;4983962;28;20510;-79
2023/07/19 01:57:11;;;;;;;6.45;2.92;;;16.10;68.00;;;;;;4986128;28;20040;-79
2023/07/19 01:59:37;;;;;;;2.78;2.20;;;16.00;68.20;;;;;;4967658;28;20048;-79
2023/07/19 02:02:03;;;;;;;2.83;2.33;;;16.10;68.50;;;;;;4967558;28;20041;-79
2023/07/19 02:04:29;;;;;;;4.30;2.50;;;16.10;68.70;;;;;;4969465;28;20031;-79
2023/07/19 02:06:55;;;;;;;4.13;2.25;;;16.10;68.60;;;;;;4971249;28;20046;-79
2023/07/19 02:09:21;;;;;;;4.65;2.65;;;16.00;68.50;;;;;;4967812;28;20100;-79
2023/07/19 02:11:46;;;;;;;6.15;2.47;;;16.00;68.30;;;;;;4967776;28;20097;-78
2023/07/19 02:14:12;;;;;;;3.47;2.78;;;15.90;68.00;;;;;;4966056;28;20027;-78
2023/07/19 02:16:38;;;;;;;5.68;2.90;;;15.90;68.90;;;;;;4972011;28;20038;-78
2023/07/19 02:19:05;;;;;;;4.35;3.15;;;15.80;68.30;;;;;;4967617;28;20070;-78
2023/07/19 02:21:30;;;;;;;8.10;2.95;;;15.80;68.10;;;;;;4967941;28;20039;-76
2023/07/19 02:23:57;;;;;;;6.05;3.28;;;15.60;74.20;;;;;;4965067;28;20035;-75
2023/07/19 02:26:23;;;;;;;3.33;2.40;;;15.50;73.00;;;;;;4972450;28;20125;-75
2023/07/19 02:28:48;;;;;;;7.38;3.33;;;15.50;71.00;;;;;;4967504;28;20042;-75
2023/07/19 02:31:14;;;;;;;5.55;3.08;;;15.40;75.00;;;;;;4967874;28;20035;-76
2023/07/19 02:33:40;;;;;;;5.63;2.60;;;15.30;71.00;;;;;;4950601;28;20046;-76
2023/07/19 02:36:05;;;;;;;3.55;2.28;;;15.50;70.20;;;;;;4968325;28;20513;-76
2023/07/19 02:38:35;;;;;;;3.17;2.25;;;15.70;70.50;;;;;;4972790;28;20042;-79
2023/07/19 02:41:01;;;;;;;3.58;2.13;;;15.60;70.20;;;;;;4968212;28;20037;-79
2023/07/19 02:43:27;;;;;;;4.85;2.42;;;15.50;70.00;;;;;;4972609;28;20762;-78
2023/07/19 02:45:53;;;;;;;3.50;2.70;;;15.40;71.00;;;;;;4966779;28;20031;-78
2023/07/19 02:48:19;;;;;;;3.80;2.70;;;15.50;70.80;;;;;;4969174;28;24875;-79
2023/07/19 02:50:48;;;;;;;7.25;3.58;;;15.40;70.20;;;;;;4969115;28;20483;-79
2023/07/19 02:53:13;;;;;;;7.30;3.38;;;15.40;70.80;;;;;;4974254;28;20050;-79
2023/07/19 02:55:39;;;;;;;3.13;2.10;;;15.40;73.00;;;;;;4963431;28;20702;-78
2023/07/19 02:58:06;;;;;;;3.17;2.10;;;15.50;72.60;;;;;;4963511;28;20492;-79
2023/07/19 03:00:31;;;;;;;3.90;2.45;;;15.50;73.00;;;;;;4968219;28;20094;-78
2023/07/19 03:02:57;;;;;;;3.28;2.20;;;15.50;72.10;;;;;;4966752;28;20683;-78
2023/07/19 03:05:23;;;;;;;4.50;2.40;;;15.50;72.50;;;;;;4973499;28;20053;-78
2023/07/19 03:07:49;;;;;;;3.03;2.17;;;15.50;73.00;;;;;;4966042;28;20034;-79
2023/07/19 03:10:15;;;;;;;3.60;2.35;;;15.50;73.20;;;;;;4978329;28;20038;-79
2023/07/19 03:12:40;;;;;;;9.23;3.38;;;15.40;75.30;;;;;;4967298;28;20371;-79
2023/07/19 03:15:06;;;;;;;5.50;3.28;;;14.90;71.30;;;;;;4979697;28;20080;-78
2023/07/19 03:17:32;;;;;;;3.85;2.30;;;14.30;76.40;;;;;;4953616;28;20486;-78
2023/07/19 03:19:58;;;;;;;4.15;3.30;;;14.60;78.10;;;;;;4951659;28;20035;-78
2023/07/19 03:22:23;;;;;;;5.07;3.15;;;14.70;73.60;;;;;;4967737;28;20035;-78
2023/07/19 03:24:49;;;;;;;9.43;3.10;;;14.70;73.80;;;;;;4968203;28;20121;-78
2023/07/19 03:27:14;;;;;;;5.78;3.53;;;14.80;73.70;;;;;;4950828;28;20538;-79
2023/07/19 03:29:40;;;;;;;7.13;2.72;;;14.80;73.80;;;;;;4969041;28;20379;-78
2023/07/19 03:32:06;;;;;;;3.85;2.45;;;14.80;72.50;;;;;;4965104;28;20042;-79
2023/07/19 03:34:32;;;;;;;6.72;3.08;;;14.90;74.00;;;;;;4981206;28;20784;-78
2023/07/19 03:36:58;;;;;;;7.18;3.40;;;14.90;74.10;;;;;;4966948;28;20061;-78
2023/07/19 03:39:24;;;;;;;4.28;3.17;;;14.80;82.80;;;;;;4976782;28;20058;-79
2023/07/19 03:41:49;;;;;;;5.38;2.90;;;14.70;86.80;;;;;;4958061;28;20042;-78
2023/07/19 03:44:15;;;;;;;4.90;2.45;;;14.60;89.20;;;;;;4971564;28;20038;-78
2023/07/19 03:46:40;;;;;;;5.47;2.50;;;14.80;79.10;;;;;;4969700;28;20744;-78
2023/07/19 03:49:06;;;;;;;5.22;3.13;;;15.10;81.90;;;;;;4996218;28;20035;-78
2023/07/19 03:51:31;;;;;;;4.80;3.13;;;15.00;79.60;;;;;;4954296;28;20541;-78
2023/07/19 03:53:57;;;;;;;3.83;2.78;;;15.00;78.90;;;;;;4971139;28;20041;-78
2023/07/19 03:56:23;;;;;;;5.60;2.55;;;15.20;77.80;;;;;;4973586;28;20043;-78
2023/07/19 03:58:49;;;;;;;5.45;2.53;;;15.00;79.70;;;;;;4963053;28;20023;-78
2023/07/19 04:01:15;;;;;;;5.43;2.70;;;15.20;79.70;;;;;;4956865;28;20023;-78
2023/07/19 04:03:41;;;;;;;5.85;3.22;;;15.00;80.00;;;;;;4986659;28;20035;-78
2023/07/19 04:06:07;;;;;;;3.97;2.55;;;15.10;82.90;;;;;;4986318;28;20030;-78
2023/07/19 04:08:33;;;;;;;5.65;2.67;;;15.00;80.80;;;;;;4972654;28;20489;-78
2023/07/19 04:10:59;;;;;;;7.40;3.45;;;15.00;83.20;;;;;;4967153;28;20031;-78
2023/07/19 04:13:26;;;;;;;4.97;2.78;;;14.90;82.60;;;;;;4987226;28;20045;-78
2023/07/19 04:15:52;;;;;;;5.78;2.90;;;15.00;82.50;;;;;;4956841;28;20035;-78
2023/07/19 04:18:17;;;;;;;5.00;2.97;;;15.10;82.80;;;;;;4978658;28;20039;-78
2023/07/19 04:20:43;;;;;;;5.40;3.00;;;15.30;81.80;;;;;;4971816;28;20042;-78
2023/07/19 04:23:08;;;;;;;6.70;3.30;;;15.40;81.20;;;;;;4973623;28;20042;-78
2023/07/19 04:25:34;;;;;;;8.55;3.00;;;15.40;85.00;;;;;;4953295;28;20035;-78
2023/07/19 04:28:00;;;;;;;5.55;3.20;;;15.30;82.00;;;;;;4967298;28;20038;-78
2023/07/19 04:30:25;;;;;;;4.43;3.03;;;15.30;88.50;;;;;;4969747;28;20026;-78
2023/07/19 04:32:54;;;;;;;7.03;3.25;;;15.30;90.40;;;;;;4972515;28;20046;-78
2023/07/19 04:35:23;;;;;;;4.82;2.72;;;15.30;91.70;;;;;;4957847;28;20039;-78
2023/07/19 04:37:52;;;;;;;3.72;2.67;;;15.40;87.70;;;;;;4975920;28;20034;-78
2023/07/19 04:40:18;;;;;;;3.75;2.38;;;15.60;85.50;;;;;;4957568;28;20118;-78
2023/07/19 04:42:43;;;;;;;3.42;2.17;;;15.80;86.00;;;;;;4969353;28;20165;-78
2023/07/19 04:45:09;;;;;;;4.43;3.05;;;15.80;84.00;;;;;;4971689;28;20034;-78
2023/07/19 04:47:38;;;;;;;5.00;2.22;;;16.00;85.30;;;;;;4970973;28;20034;-78
2023/07/19 04:50:08;;;;;;;8.90;2.80;;;16.00;84.30;;;;;;4957867;28;20417;-78
2023/07/19 04:52:34;;;;;;;6.55;2.95;;;16.10;84.60;;;;;;4965721;28;20054;-78
2023/07/19 04:55:01;;;;;;;5.80;3.50;;;16.10;88.80;;;;;;4954284;28;20035;-78
2023/07/19 04:57:27;;;;;;;5.10;3.45;;;16.10;90.20;;;;;;4974040;28;20645;-78
2023/07/19 04:59:52;;;;;;;6.00;3.78;;;16.10;86.50;;;;;;4984147;28;20045;-78
2023/07/19 05:02:18;;;;;;;5.28;2.83;;;16.20;86.40;;;;;;4957250;28;20133;-78
2023/07/19 05:04:44;;;;;;;3.15;2.22;;;16.40;84.50;;;;;;4975324;28;20589;-78
2023/07/19 05:07:09;;;;;;;5.93;3.08;;;16.40;83.40;;;;;;4965788;28;20026;-78
2023/07/19 05:09:35;;;;;;;4.60;3.05;;;16.50;83.00;;;;;;4970765;28;20033;-78
2023/07/19 05:12:00;;;;;;;6.57;2.90;;;16.50;81.90;;;;;;4971555;28;20042;-78
2023/07/19 05:14:26;;;;;;;3.53;2.60;;;16.50;80.70;;;;;;4973289;28;20104;-78
2023/07/19 05:16:52;;;;;;;5.80;2.33;;;16.60;80.60;;;;;;4952377;28;20034;-78
2023/07/19 05:19:17;;;;;;;3.55;2.30;;;16.70;81.40;;;;;;4965959;28;20039;-78
2023/07/19 05:21:43;;;;;;;3.88;2.35;;;16.90;80.40;;;;;;4970855;28;20133;-78
2023/07/19 05:24:09;;;;;;;7.65;2.38;;;17.00;81.90;;;;;;4994856;28;20042;-78
2023/07/19 05:26:34;;;;;;;3.53;2.45;;;17.10;80.50;;;;;;4954239;28;20038;-78
2023/07/19 05:29:00;;;;;;;5.78;2.80;;;17.20;79.70;;;;;;4975839;28;20045;-77
2023/07/19 05:31:25;;;;;;;5.97;3.35;;;17.20;80.00;;;;;;4950004;28;20042;-78
2023/07/19 05:33:51;;;;;;;3.90;2.38;;;17.30;83.20;;;;;;4972195;28;20718;-78
2023/07/19 05:36:16;;;;;;;5.55;2.63;;;17.40;79.40;;;;;;4965635;28;20035;-78
2023/07/19 05:38:42;;;;;;;7.05;3.00;;;17.40;78.90;;;;;;4967275;28;20041;-78
2023/07/19 05:41:08;;;;;;;7.93;2.90;;;17.50;78.50;;;;;;4984407;28;20130;-78
2023/07/19 05:43:33;;;;;;;3.88;2.78;;;17.50;77.80;;;;;;4984228;28;20031;-77
2023/07/19 05:46:06;;;;;;;4.75;2.25;;;17.60;77.20;;;;;;4982320;28;20026;-78
2023/07/19 05:48:32;;;;;;;4.82;2.58;;;17.70;77.50;;;;;;4957599;28;20506;-78
2023/07/19 05:50:58;;;;;;;2.85;2.05;;;17.80;77.10;;;;;;4955271;28;20494;-78
2023/07/19 05:53:24;;;;;;;3.42;2.40;;;17.90;76.50;;;;;;4958881;28;20429;-78
2023/07/19 05:55:52;;;;;;;6.07;2.88;;;17.90;76.00;;;;;;4934126;28;20136;-77
2023/07/19 05:58:18;;;;;;;11.75;3.33;;;18.10;75.70;;;;;;4980320;28;20044;-78
2023/07/19 06:00:44;;;;;;;6.13;2.90;;;18.20;75.80;;;;;;4954117;28;20045;-79
2023/07/19 06:03:10;;;;;;;5.53;2.75;;;18.20;74.90;;;;;;4998583;28;20034;-79
2023/07/19 06:05:35;;;;;;;5.47;2.83;;;18.30;75.50;;;;;;4958559;28;20038;-78
2023/07/19 06:08:01;;;;;;;5.05;2.92;;;18.30;75.50;;;;;;4964815;28;20027;-77
2023/07/19 06:10:26;;;;;;;6.00;2.90;;;18.40;75.30;;;;;;4989003;28;20046;-78
2023/07/19 06:12:53;;;;;;;5.20;2.40;;;18.40;75.40;;;;;;4970208;28;20050;-78
2023/07/19 06:15:18;;;;;;;7.07;3.22;;;18.50;75.90;;;;;;4964055;28;20038;-77
2023/07/19 06:17:44;;;;;;;5.82;3.10;;;18.60;75.90;;;;;;4976182;28;20045;-77
2023/07/19 06:20:13;;;;;;;4.60;2.22;;;18.60;74.90;;;;;;4984010;28;20053;-77
2023/07/19 06:22:39;;;;;;;4.75;2.88;;;18.70;74.10;;;;;;4970638;28;20122;-77
2023/07/19 06:25:05;;;;;;;5.10;2.35;;;18.70;73.20;;;;;;4983975;28;20126;-77
2023/07/19 06:27:34;;;;;;;2.88;2.30;;;18.80;73.10;;;;;;4958571;28;20451;-79
2023/07/19 06:30:00;;;;;;;5.95;2.60;;;18.80;73.70;;;;;;4997320;28;20031;-78
2023/07/19 06:32:25;;;;;;;5.35;2.30;;;18.80;74.80;;;;;;4969993;28;20104;-78
2023/07/19 06:34:51;;;;;;;5.47;2.50;;;18.80;74.50;;;;;;4959055;28;20039;-78
2023/07/19 06:37:17;;;;;;;10.70;3.85;;;18.80;75.70;;;;;;4950686;28;20030;-78
2023/07/19 06:39:42;;;;;;;10.65;3.97;;;18.80;76.20;;;;;;4949057;28;20035;-78
2023/07/19 06:42:08;;;;;;;7.35;4.03;;;18.90;74.50;;;;;;4981218;28;20596;-78
2023/07/19 06:44:35;;;;;;;5.82;3.78;;;19.00;74.00;;;;;;4970593;28;20030;-77
2023/07/19 06:47:00;;;;;;;7.13;3.53;;;19.20;74.70;;;;;;4953944;28;20027;-78
2023/07/19 06:49:26;;;;;;;5.60;2.75;;;19.10;75.10;;;;;;4967264;28;20034;-78
2023/07/19 06:51:51;;;;;;;8.52;3.15;;;19.10;74.00;;;;;;4970233;28;20027;-79
2023/07/19 06:54:17;;;;;;;30.77;6.32;;;19.00;74.10;;;;;;4972351;28;20105;-77
2023/07/19 06:56:43;;;;;;;7.43;2.97;;;18.90;74.10;;;;;;4962059;28;20118;-77
2023/07/19 06:59:08;;;;;;;17.48;4.82;;;18.80;76.60;;;;;;4965835;28;20034;-77
2023/07/19 07:01:34;;;;;;;2.88;2.10;;;18.80;78.90;;;;;;4954368;28;20047;-78
2023/07/19 07:03:59;;;;;;;5.35;2.60;;;18.70;77.30;;;;;;4980979;28;20030;-78
2023/07/19 07:06:25;;;;;;;5.93;2.85;;;18.70;77.80;;;;;;4956791;28;20038;-78
2023/07/19 07:08:51;;;;;;;8.27;3.40;;;18.70;78.50;;;;;;4967701;28;20034;-78
2023/07/19 07:11:16;;;;;;;7.68;4.43;;;18.70;79.70;;;;;;4969858;28;20038;-77
2023/07/19 07:13:42;;;;;;;8.57;3.75;;;18.70;79.90;;;;;;4950148;28;20085;-78
2023/07/19 07:16:08;;;;;;;6.63;3.10;;;18.80;83.20;;;;;;4965364;28;20030;-78
2023/07/19 07:18:33;;;;;;;8.25;3.17;;;18.80;82.70;;;;;;4966037;28;20054;-78
2023/07/19 07:20:59;;;;;;;3.13;2.70;;;18.90;81.60;;;;;;4967925;28;20026;-78
2023/07/19 07:23:25;;;;;;;9.13;4.35;;;19.00;81.70;;;;;;4983414;28;20039;-77
2023/07/19 07:25:53;;;;;;;5.82;3.40;;;19.00;81.80;;;;;;4968056;28;20368;-77
2023/07/19 07:28:19;;;;;;;6.63;3.35;;;19.20;82.50;;;;;;4970841;28;20387;-78
2023/07/19 07:30:45;;;;;;;7.50;4.22;;;19.20;82.90;;;;;;4982538;28;20089;-78
2023/07/19 07:33:10;;;;;;;9.88;4.72;;;19.20;83.10;;;;;;4966576;28;20038;-78
2023/07/19 07:35:36;;;;;;;6.60;3.45;;;19.30;87.20;;;;;;4963591;28;20031;-75
2023/07/19 07:38:01;;;;;;;3.80;2.90;;;19.30;84.80;;;;;;4969021;28;20093;-75
2023/07/19 07:40:27;;;;;;;6.63;4.22;;;19.40;84.00;;;;;;4983444;28;20038;-75
2023/07/19 07:42:53;;;;;;;7.60;3.85;;;19.50;85.40;;;;;;4966747;28;20026;-75
2023/07/19 07:45:18;;;;;;;5.90;3.03;;;19.50;84.00;;;;;;4984293;28;20034;-74
2023/07/19 07:47:44;;;;;;;8.18;3.88;;;19.60;82.10;;;;;;4955030;28;20455;-74
2023/07/19 07:50:10;;;;;;;7.20;3.45;;;19.70;81.00;;;;;;4960533;28;20133;-77
2023/07/19 07:52:35;;;;;;;7.88;3.45;;;19.80;81.80;;;;;;4961682;28;20039;-77
2023/07/19 07:55:01;;;;;;;5.20;4.00;;;19.80;82.30;;;;;;4968712;28;20571;-75
2023/07/19 07:57:30;;;;;;;7.25;3.00;;;19.80;82.80;;;;;;4982028;28;20061;-76
2023/07/19 07:59:55;;;;;;;7.53;3.38;;;19.90;82.60;;;;;;4997306;28;20022;-74
2023/07/19 08:02:21;;;;;;;8.15;3.42;;;19.90;82.10;;;;;;4955973;28;20030;-77
2023/07/19 08:04:47;;;;;;;6.13;2.80;;;19.90;82.40;;;;;;4982274;28;20030;-76
2023/07/19 08:07:13;;;;;;;6.43;3.80;;;19.90;81.90;;;;;;4990346;28;20418;-76
2023/07/19 08:09:39;;;;;;;6.50;3.00;;;20.10;83.40;;;;;;4955841;28;20073;-75
2023/07/19 08:12:05;;;;;;;7.28;3.75;;;20.20;83.50;;;;;;4978844;28;20469;-76
2023/07/19 08:14:30;;;;;;;6.28;3.35;;;20.30;82.20;;;;;;4967908;28;20448;-75
2023/07/19 08:16:56;;;;;;;5.38;3.08;;;20.50;84.00;;;;;;4966139;28;20058;-76
2023/07/19 08:19:21;;;;;;;8.90;2.80;;;20.50;83.70;;;;;;4952767;28;20038;-77
2023/07/19 08:21:47;;;;;;;8.30;3.15;;;20.70;83.30;;;;;;4949900;28;20364;-77
2023/07/19 08:24:13;;;;;;;6.82;2.72;;;20.70;84.10;;;;;;4966000;28;20106;-78
2023/07/19 08:26:39;;;;;;;7.80;3.28;;;20.80;84.40;;;;;;4973002;28;20037;-78
2023/07/19 08:29:05;;;;;;;10.38;3.08;;;20.90;84.50;;;;;;4951825;28;20086;-78
2023/07/19 08:31:30;;;;;;;9.27;3.92;;;21.30;87.50;;;;;;4985737;28;20026;-77
2023/07/19 08:33:56;;;;;;;9.45;3.35;;;21.50;86.80;;;;;;4961063;28;20482;-77
2023/07/19 08:36:22;;;;;;;9.48;3.60;;;21.80;89.10;;;;;;4973166;28;20497;-77
2023/07/19 08:38:48;;;;;;;7.45;3.30;;;22.00;83.90;;;;;;4954801;28;20035;-78
2023/07/19 08:41:13;;;;;;;7.47;3.40;;;22.50;90.90;;;;;;4956171;28;20030;-78
2023/07/19 08:43:39;;;;;;;8.13;3.28;;;22.70;84.60;;;;;;4987957;28;20088;-77
2023/07/19 08:46:04;;;;;;;12.27;2.80;;;23.00;85.30;;;;;;4967547;28;20038;-79
2023/07/19 08:48:34;;;;;;;10.02;3.42;;;23.10;81.70;;;;;;4938935;28;20034;-78
2023/07/19 08:51:01;;;;;;;9.27;3.13;;;23.30;86.60;;;;;;4973891;28;20034;-78
2023/07/19 08:53:26;;;;;;;7.40;2.90;;;23.50;85.50;;;;;;4969136;28;20058;-77
2023/07/19 08:55:52;;;;;;;5.18;2.92;;;23.50;82.40;;;;;;4967495;28;20065;-77
2023/07/19 08:58:18;;;;;;;9.43;2.42;;;23.60;80.70;;;;;;4970915;28;20042;-78
2023/07/19 09:00:47;;;;;;;7.45;2.72;;;23.80;83.60;;;;;;4955244;28;20053;-76
2023/07/19 09:03:14;;;;;;;4.43;2.38;;;23.70;81.90;;;;;;4985448;28;20030;-77
2023/07/19 09:05:39;;;;;;;4.25;2.72;;;23.70;82.40;;;;;;4952208;28;20089;-75
2023/07/19 09:08:05;;;;;;;8.10;2.97;;;23.60;84.50;;;;;;4963066;28;20434;-79
2023/07/19 09:10:30;;;;;;;7.20;3.40;;;23.10;81.20;;;;;;4970744;28;20125;-78
2023/07/19 09:12:56;;;;;;;6.55;3.28;;;23.00;80.60;;;;;;4971819;28;20138;-78
2023/07/19 09:15:22;;;;;;;8.23;3.75;;;23.00;79.80;;;;;;4956611;28;20585;-78
2023/07/19 09:17:48;;;;;;;5.32;2.63;;;23.00;79.20;;;;;;4951372;28;20117;-78
2023/07/19 09:20:15;;;;;;;7.22;3.00;;;23.30;81.50;;;;;;4965351;28;20045;-77
2023/07/19 09:22:40;;;;;;;6.20;3.17;;;23.40;82.30;;;;;;4970897;28;20035;-78
2023/07/19 09:25:09;;;;;;;7.22;2.97;;;23.40;79.30;;;;;;4957522;28;20027;-78
2023/07/19 09:27:35;;;;;;;8.02;2.95;;;23.40;78.90;;;;;;4970809;28;20034;-78
2023/07/19 09:30:02;;;;;;;4.95;2.92;;;23.30;77.30;;;;;;4962434;28;20035;-78
2023/07/19 09:32:28;;;;;;;8.43;2.55;;;23.20;77.70;;;;;;4985134;28;20046;-78
2023/07/19 09:34:54;;;;;;;12.10;3.35;;;23.40;79.20;;;;;;4960088;28;20509;-78
2023/07/19 09:37:24;;;;;;;7.50;3.00;;;23.50;76.30;;;;;;4963825;28;20082;-77
2023/07/19 09:39:51;;;;;;;6.28;3.28;;;23.10;76.30;;;;;;4997967;28;20062;-77
2023/07/19 09:42:17;;;;;;;4.22;3.20;;;23.20;76.70;;;;;;4982890;28;20714;-78
2023/07/19 09:44:44;;;;;;;6.88;2.78;;;23.30;76.50;;;;;;4970439;28;20570;-78
2023/07/19 09:47:10;;;;;;;6.60;3.70;;;23.80;76.80;;;;;;4967178;28;20031;-78
2023/07/19 09:49:39;;;;;;;9.10;4.30;;;24.10;79.10;;;;;;4956475;28;20138;-78
2023/07/19 09:52:05;;;;;;;5.80;2.83;;;24.40;77.60;;;;;;4956065;28;20089;-79
2023/07/19 09:54:31;;;;;;;6.93;3.63;;;24.60;75.80;;;;;;4968474;28;20035;-76
2023/07/19 09:56:57;;;;;;;14.38;4.15;;;24.50;77.00;;;;;;4968000;28;20045;-76
2023/07/19 09:59:27;;;;;;;8.75;3.78;;;24.80;81.00;;;;;;4970300;28;20398;-80
2023/07/19 10:01:53;;;;;;;7.68;3.28;;;24.90;75.10;;;;;;4976928;28;20118;-77
2023/07/19 10:04:37;;;;;;;5.53;3.33;;;25.20;79.00;;;;;;4969131;28;20570;-77
2023/07/19 10:07:03;;;;;;;10.13;3.72;;;25.30;74.40;;;;;;4968286;28;20027;-77
2023/07/19 10:09:31;;;;;;;7.82;3.60;;;25.30;75.20;;;;;;4954427;28;20120;-80
2023/07/19 10:12:23;;;;;;;5.50;3.45;;;25.70;75.80;;;;;;4969983;28;20053;-79
2023/07/19 10:14:56;;;;;;;6.72;3.60;;;25.60;74.20;;;;;;4966734;28;20031;-79
2023/07/19 10:17:22;;;;;;;8.30;4.32;;;25.70;73.10;;;;;;4612404;28;10000507;-79
2023/07/19 10:19:58;;;;;;;6.25;3.05;;;26.20;77.70;;;;;;4653939;28;9999728;-80
2023/07/19 10:22:46;;;;;;;5.15;3.08;;;26.20;72.60;;;;;;4997503;28;20053;-79
2023/07/19 10:25:14;;;;;;;7.25;2.90;;;26.40;74.60;;;;;;4959822;28;20041;-79
2023/07/19 10:27:40;;;;;;;5.18;2.47;;;26.80;76.10;;;;;;4967077;28;20138;-80
2023/07/19 10:30:06;;;;;;;7.85;3.63;;;26.60;72.80;;;;;;4954704;28;20073;-80
2023/07/19 10:32:32;;;;;;;7.22;3.30;;;26.40;69.80;;;;;;4964508;28;20038;-80
2023/07/19 10:34:57;;;;;;;5.93;3.50;;;25.90;70.30;;;;;;4964965;28;20034;-80
2023/07/19 10:37:23;;;;;;;5.65;3.13;;;26.00;70.50;;;;;;4954893;28;20031;-80
2023/07/19 10:39:48;;;;;;;11.73;4.45;;;26.40;69.30;;;;;;4951836;28;20038;-80
2023/07/19 10:42:14;;;;;;;7.88;3.50;;;26.20;69.70;;;;;;4965686;28;20045;-80
2023/07/19 10:44:40;;;;;;;7.13;3.53;;;26.60;69.40;;;;;;4964233;28;20038;-80
2023/07/19 10:47:06;;;;;;;4.68;3.15;;;26.80;68.10;;;;;;4956136;28;20039;-80
2023/07/19 10:49:31;;;;;;;5.95;3.78;;;26.90;67.70;;;;;;4964459;28;20043;-81
2023/07/19 10:51:58;;;;;;;6.68;3.30;;;26.50;67.90;;;;;;4967858;28;20057;-80
2023/07/19 10:54:25;;;;;;;10.10;4.18;;;27.30;68.00;;;;;;4971150;28;20618;-80
2023/07/19 10:56:51;;;;;;;8.23;3.53;;;28.30;70.10;;;;;;4967948;28;20067;-80
2023/07/19 10:59:17;;;;;;;8.93;2.80;;;28.80;68.70;;;;;;4970693;28;20398;-81
2023/07/19 11:01:43;;;;;;;7.20;3.30;;;28.40;65.30;;;;;;4968815;28;20045;-81
2023/07/19 11:04:08;;;;;;;4.50;2.90;;;28.60;64.10;;;;;;4966974;28;20033;-81
2023/07/19 11:06:36;;;;;;;7.10;2.67;;;28.30;65.00;;;;;;4974197;28;20034;-81
2023/07/19 11:09:08;;;;;;;7.65;2.83;;;29.00;66.00;;;;;;4968735;28;20057;-82
2023/07/19 11:11:37;;;;;;;3.75;2.42;;;29.20;67.10;;;;;;4968729;28;20027;-82
2023/07/19 11:14:03;;;;;;;9.50;3.88;;;29.60;65.20;;;;;;4953652;28;20022;-82
2023/07/19 11:16:29;;;;;;;7.38;3.10;;;29.50;62.10;;;;;;4970296;28;20038;-81
2023/07/19 11:18:54;;;;;;;4.95;3.35;;;28.70;64.20;;;;;;4952734;28;20027;-82
2023/07/19 11:21:26;;;;;;;2.88;2.50;;;29.50;65.50;;;;;;4965486;28;20027;-82
2023/07/19 11:23:52;;;;;;;7.85;2.67;;;30.10;65.30;;;;;;4967591;28;20521;-83
2023/07/19 11:26:18;;;;;;;6.80;3.65;;;29.70;61.20;;;;;;4956224;28;20027;-81
2023/07/19 11:28:54;;;;;;;6.95;2.92;;;30.20;64.40;;;;;;4950134;28;20987;-81
2023/07/19 11:31:31;;;;;;;5.88;2.47;;;30.40;62.30;;;;;;4962591;28;20053;-82
2023/07/19 11:34:01;;;;;;;4.53;2.60;;;30.40;62.00;;;;;;4983132;28;20099;-83
2023/07/19 11:36:27;;;;;;;9.63;2.47;;;30.60;61.50;;;;;;4970911;28;20499;-82
2023/07/19 11:38:53;;;;;;;7.18;3.00;;;30.80;60.00;;;;;;4972126;28;20394;-82
2023/07/19 11:41:19;;;;;;;6.53;2.58;;;30.20;60.10;;;;;;4967601;28;20030;-82
2023/07/19 11:43:45;;;;;;;20.15;2.88;;;30.30;58.00;;;;;;4969594;28;20984;-82
2023/07/19 11:46:14;;;;;;;5.30;2.13;;;30.20;57.80;;;;;;4965689;28;20532;-81
2023/07/19 11:48:39;;;;;;;5.35;2.08;;;30.80;57.70;;;;;;4972101;28;20120;-82
2023/07/19 11:51:05;;;;;;;3.97;2.28;;;30.60;56.80;;;;;;4966779;28;20167;-81
2023/07/19 11:53:31;;;;;;;6.07;2.25;;;30.80;57.60;;;;;;4970532;28;20042;-81
2023/07/19 11:55:56;;;;;;;2.17;1.63;;;31.50;58.50;;;;;;4955133;28;20122;-81
2023/07/19 11:58:23;;;;;;;5.90;2.15;;;31.70;55.80;;;;;;4954295;28;20032;-81
2023/07/19 12:00:48;;;;;;;2.80;1.70;;;31.80;57.50;;;;;;4952293;28;20142;-82
2023/07/19 12:03:14;;;;;;;1.17;0.88;;;31.70;56.50;;;;;;4969159;28;20031;-81
2023/07/19 12:05:40;;;;;;;2.42;1.65;;;32.10;52.80;;;;;;4953742;28;20054;-80
2023/07/19 12:08:06;;;;;;;3.35;1.50;;;32.20;54.00;;;;;;4957806;28;20035;-82
2023/07/19 12:10:32;;;;;;;6.70;1.63;;;32.40;53.80;;;;;;4966625;28;20038;-82
2023/07/19 12:12:57;;;;;;;4.45;1.60;;;32.20;54.40;;;;;;4951580;28;20077;-82
2023/07/19 12:15:23;;;;;;;2.38;1.40;;;32.60;53.60;;;;;;4973612;28;20548;-81
2023/07/19 12:17:49;;;;;;;2.47;1.50;;;32.90;52.60;;;;;;4967901;28;20550;-81
2023/07/19 12:20:15;;;;;;;4.53;1.83;;;33.00;51.80;;;;;;4959681;28;20034;-81
2023/07/19 12:22:42;;;;;;;4.30;1.35;;;33.10;52.10;;;;;;4972700;28;20042;-82
2023/07/19 12:25:08;;;;;;;2.20;1.67;;;33.10;51.30;;;;;;4942446;28;20054;-83
2023/07/19 12:27:34;;;;;;;3.72;1.63;;;33.10;51.10;;;;;;4971768;28;20486;-82
2023/07/19 12:29:59;;;;;;;7.50;1.80;;;33.50;50.60;;;;;;4971998;28;20057;-82
2023/07/19 12:32:25;;;;;;;4.90;2.00;;;33.50;50.10;;;;;;4972234;28;20170;-81
2023/07/19 12:34:50;;;;;;;2.70;1.67;;;33.70;51.90;;;;;;4960223;28;20039;-82
2023/07/19 12:37:16;;;;;;;3.10;1.95;;;33.60;51.50;;;;;;4957317;28;20435;-82
2023/07/19 12:39:42;;;;;;;5.15;1.95;;;33.70;51.00;;;;;;4953800;28;20427;-81